Terminal Aerodrome Forecast
Issued by NWS Blacksburg, VA

Current Version | Previous Version | Text Only | Print | Product List | Glossary Off
Versions: 1 2 3 4 5 6 7 8 9 10 11 12 13 14 15 16

000
FTUS41 KRNK 151720
TAFBLF
TAF
KBLF 151720Z 1518/1618 29009G17KT P6SM -SHSN BKN020
     FM152100 28012G21KT P6SM SCT025 BKN040
     FM160200 29012G21KT P6SM VCSH BKN025
     FM160600 29012KT P6SM SCT025 SCT040
     FM161100 27010KT P6SM SCT250=

USA.gov is the U.S. government's official web portal to all federal, state and local government web resources and services.